Time;durP1;ratioP1;P1;durP2;ratioP2;P2;SDS_P1;SDS_P2;PMS_P1;PMS_P2;Temp;Humidity;BMP_temperature;BMP_pressure;BME280_temperature;BME280_humidity;BME280_pressure;Samples;Min_cycle;Max_cycle;Signal;HPM_P1;HPM_P2
2022/06/17 00:00:11;;;;;;;3.50;1.90;;;15.90;95.60;;;;;;5019903;28;20033;-76
2022/06/17 00:02:37;;;;;;;3.83;1.90;;;15.90;95.20;;;;;;4671741;28;10000913;-75
2022/06/17 00:05:03;;;;;;;9.27;2.08;;;15.90;94.80;;;;;;5022315;28;20030;-75
2022/06/17 00:07:28;;;;;;;5.18;2.08;;;16.00;94.80;;;;;;5012040;28;20494;-75
2022/06/17 00:09:54;;;;;;;4.65;2.08;;;16.00;95.10;;;;;;5021565;28;20107;-75
2022/06/17 00:12:20;;;;;;;3.42;2.20;;;15.90;95.50;;;;;;5024484;28;20393;-76
2022/06/17 00:17:30;;;;;;;5.53;2.30;;;15.80;97.20;;;;;;5023527;28;20065;-75
2022/06/17 00:19:56;;;;;;;4.28;2.30;;;15.70;98.00;;;;;;5018638;28;20044;-75
2022/06/17 00:22:22;;;;;;;3.63;2.45;;;15.70;97.80;;;;;;5025729;28;20076;-76
2022/06/17 00:24:50;;;;;;;2.97;2.20;;;15.70;97.90;;;;;;5025697;28;20029;-76
2022/06/17 00:27:16;;;;;;;3.03;1.80;;;15.60;98.10;;;;;;5024443;28;20083;-76
2022/06/17 00:29:41;;;;;;;2.47;2.03;;;15.60;99.90;;;;;;5013693;28;20025;-76
2022/06/17 00:32:07;;;;;;;3.53;1.73;;;15.40;99.90;;;;;;5018702;28;20040;-76
2022/06/17 00:34:33;;;;;;;2.55;1.90;;;15.40;99.90;;;;;;5021525;28;20657;-76
2022/06/17 00:37:01;;;;;;;1.92;1.75;;;15.30;99.90;;;;;;5020653;28;20463;-76
2022/06/17 00:39:30;;;;;;;2.70;2.13;;;15.20;99.90;;;;;;5017431;28;20021;-76
2022/06/17 00:42:03;;;;;;;3.17;2.00;;;15.10;99.90;;;;;;5023252;28;20037;-75
2022/06/17 00:44:50;;;;;;;4.82;2.45;;;15.10;99.90;;;;;;5023982;28;20029;-77
2022/06/17 00:47:49;;;;;;;3.10;2.20;;;14.90;99.40;;;;;;5022616;28;20029;-76
2022/06/17 00:50:45;;;;;;;3.00;2.40;;;14.80;99.90;;;;;;5013636;28;20033;-76
2022/06/17 00:53:20;;;;;;;3.65;2.55;;;14.70;99.90;;;;;;5023031;28;20395;-76
2022/06/17 00:56:18;;;;;;;4.03;2.80;;;14.60;99.90;;;;;;5012043;28;20490;-76
2022/06/17 00:59:01;;;;;;;5.15;2.80;;;14.40;99.90;;;;;;5022751;28;20029;-76
2022/06/17 01:01:31;;;;;;;4.63;2.72;;;14.30;99.90;;;;;;5026445;28;20097;-75
2022/06/17 01:04:00;;;;;;;4.57;3.10;;;14.20;99.90;;;;;;5019476;28;20021;-76
2022/06/17 01:06:34;;;;;;;3.70;2.95;;;14.10;99.90;;;;;;5023595;28;20536;-76
2022/06/17 01:11:46;;;;;;;3.38;2.70;;;14.00;99.90;;;;;;5016195;28;20110;-75
2022/06/17 01:14:15;;;;;;;3.78;2.90;;;14.00;99.90;;;;;;5021686;28;20025;-76
2022/06/17 01:16:43;;;;;;;2.88;2.58;;;13.80;99.90;;;;;;5023095;28;20030;-75
2022/06/17 01:19:21;;;;;;;3.42;2.50;;;13.80;99.90;;;;;;5022223;28;20049;-76
2022/06/17 01:22:13;;;;;;;5.97;3.20;;;13.80;99.90;;;;;;5018605;28;20025;-75
2022/06/17 01:24:39;;;;;;;2.80;2.53;;;13.80;99.90;;;;;;5021199;28;20025;-75
2022/06/17 01:27:06;;;;;;;4.78;3.00;;;13.80;99.90;;;;;;5021394;28;20037;-76
2022/06/17 01:29:33;;;;;;;3.00;2.70;;;13.80;99.90;;;;;;5020115;28;20032;-75
2022/06/17 01:31:59;;;;;;;3.85;2.78;;;13.70;99.90;;;;;;5011422;28;20045;-75
2022/06/17 01:34:25;;;;;;;4.32;2.88;;;13.70;99.90;;;;;;5027892;28;20045;-76
2022/06/17 01:36:51;;;;;;;5.05;2.67;;;13.70;99.90;;;;;;5024157;28;20021;-76
2022/06/17 01:39:17;;;;;;;3.78;2.85;;;13.70;99.90;;;;;;5019446;28;20034;-76
2022/06/17 01:41:45;;;;;;;3.13;2.70;;;13.70;99.90;;;;;;5016975;28;20021;-75
2022/06/17 01:44:20;;;;;;;5.03;2.88;;;13.70;99.90;;;;;;5024538;28;20441;-76
2022/06/17 01:46:52;;;;;;;4.28;2.67;;;13.70;99.90;;;;;;5018962;28;20575;-76
2022/06/17 01:49:26;;;;;;;3.05;2.75;;;13.70;99.90;;;;;;5015308;28;20125;-76
2022/06/17 01:52:03;;;;;;;4.90;2.50;;;13.70;99.90;;;;;;5022122;28;20038;-76
2022/06/17 01:54:36;;;;;;;3.65;2.55;;;13.70;99.90;;;;;;5018261;28;20030;-76
2022/06/17 01:57:03;;;;;;;;;;;13.60;99.90;;;;;;5020715;28;20036;-76
2022/06/17 01:59:36;;;;;;;4.90;2.65;;;13.60;99.90;;;;;;5015988;28;19919;-76
2022/06/17 02:02:03;;;;;;;2.78;2.20;;;13.60;99.90;;;;;;5020499;28;20052;-76
2022/06/17 02:04:34;;;;;;;2.70;2.13;;;13.60;99.90;;;;;;5015672;28;20064;-76
2022/06/17 02:07:05;;;;;;;5.55;2.40;;;13.50;99.90;;;;;;5025095;28;20033;-76
2022/06/17 02:09:31;;;;;;;5.88;3.28;;;13.50;99.90;;;;;;5015677;28;20565;-76
2022/06/17 02:12:01;;;;;;;6.35;3.40;;;13.50;99.90;;;;;;5023450;28;20043;-76
2022/06/17 02:14:27;;;;;;;4.75;3.38;;;13.50;99.90;;;;;;5020842;28;20509;-76
2022/06/17 02:16:54;;;;;;;4.22;3.33;;;13.40;99.90;;;;;;5021399;28;20029;-76
2022/06/17 02:19:24;;;;;;;6.88;3.28;;;13.30;99.90;;;;;;5023400;28;20029;-76
2022/06/17 02:22:05;;;;;;;4.25;3.00;;;13.30;99.90;;;;;;5015073;28;20025;-76
2022/06/17 02:24:31;;;;;;;4.55;3.00;;;13.30;99.90;;;;;;5021052;28;20021;-76
2022/06/17 02:27:00;;;;;;;4.53;2.88;;;13.20;99.90;;;;;;5018710;28;20454;-76
2022/06/17 02:29:28;;;;;;;4.47;2.78;;;13.10;99.90;;;;;;5014296;28;20029;-76
2022/06/17 02:31:55;;;;;;;4.57;3.00;;;13.00;99.90;;;;;;5012555;28;20872;-76
2022/06/17 02:34:21;;;;;;;4.13;2.78;;;12.90;99.90;;;;;;5022603;28;22791;-76
2022/06/17 02:37:01;;;;;;;4.40;3.20;;;12.90;99.90;;;;;;5033983;28;20393;-76
2022/06/17 02:39:27;;;;;;;3.25;2.90;;;12.90;99.90;;;;;;5021879;28;20064;-76
2022/06/17 02:41:54;;;;;;;4.07;2.90;;;12.80;99.90;;;;;;5020933;28;20032;-76
2022/06/17 02:44:38;;;;;;;4.57;2.97;;;12.80;99.90;;;;;;5020679;28;20117;-76
2022/06/17 02:47:06;;;;;;;4.20;2.72;;;;;;;;;;5017643;28;20038;-76
2022/06/17 02:49:35;;;;;;;3.15;2.80;;;12.60;99.90;;;;;;5017212;28;20037;-76
2022/06/17 02:52:03;;;;;;;4.22;3.28;;;12.80;99.90;;;;;;5022387;28;20373;-76
2022/06/17 02:54:35;;;;;;;5.10;3.15;;;12.80;99.90;;;;;;5019167;28;20025;-76
2022/06/17 02:57:02;;;;;;;4.45;3.30;;;12.80;99.90;;;;;;5010912;28;20517;-76
2022/06/17 02:59:32;;;;;;;4.35;3.40;;;12.80;99.90;;;;;;5021589;28;20401;-76
2022/06/17 03:02:30;;;;;;;4.57;3.17;;;12.70;99.90;;;;;;5014384;28;20483;-76
2022/06/17 03:04:58;;;;;;;6.90;3.28;;;12.70;99.90;;;;;;5018251;28;20053;-77
2022/06/17 03:07:28;;;;;;;3.60;3.03;;;12.70;99.90;;;;;;5025179;28;20033;-76
2022/06/17 03:09:53;;;;;;;6.15;3.40;;;12.60;99.90;;;;;;5018820;28;20033;-76
2022/06/17 03:12:25;;;;;;;4.80;3.30;;;12.60;99.90;;;;;;5008504;28;20033;-76
2022/06/17 03:15:09;;;;;;;4.03;3.17;;;12.60;99.90;;;;;;5020647;28;20037;-77
2022/06/17 03:17:39;;;;;;;5.53;3.20;;;12.60;99.90;;;;;;5022868;28;20041;-76
2022/06/17 03:20:07;;;;;;;4.40;3.58;;;12.60;99.90;;;;;;5017675;28;20406;-76
2022/06/17 03:22:35;;;;;;;5.38;3.70;;;12.60;99.90;;;;;;5016747;28;20053;-76
2022/06/17 03:25:11;;;;;;;4.88;3.45;;;12.60;99.90;;;;;;5024456;28;20099;-76
2022/06/17 03:27:54;;;;;;;3.65;3.08;;;12.60;99.90;;;;;;5020623;28;20037;-76
2022/06/17 03:30:28;;;;;;;3.58;3.10;;;12.60;99.90;;;;;;5019096;28;20038;-76
2022/06/17 03:33:10;;;;;;;4.07;3.00;;;12.70;99.90;;;;;;5023771;28;20033;-76
2022/06/17 03:35:38;;;;;;;4.90;3.47;;;12.70;99.90;;;;;;4995048;28;20490;-76
2022/06/17 03:38:10;;;;;;;3.45;2.90;;;12.70;99.90;;;;;;5000670;28;20040;-76
2022/06/17 03:40:40;;;;;;;4.90;3.33;;;12.80;99.90;;;;;;4999556;28;20052;-76
2022/06/17 03:43:31;;;;;;;7.85;3.63;;;12.80;99.90;;;;;;4999534;28;20482;-76
2022/06/17 03:46:03;;;;;;;5.60;3.85;;;12.90;99.90;;;;;;4997570;28;20100;-76
2022/06/17 03:48:44;;;;;;;3.55;3.25;;;12.90;99.90;;;;;;5000827;28;20045;-76
2022/06/17 03:51:14;;;;;;;5.10;3.50;;;12.90;99.90;;;;;;4995775;28;20072;-76
2022/06/17 03:53:42;;;;;;;3.97;2.80;;;12.90;99.90;;;;;;4998031;28;20057;-76
2022/06/17 03:56:14;;;;;;;4.75;3.33;;;12.90;99.90;;;;;;5001286;28;20030;-76
2022/06/17 03:58:41;;;;;;;4.95;3.45;;;12.90;99.90;;;;;;5003533;28;20026;-76
2022/06/17 04:01:25;;;;;;;5.72;3.38;;;13.10;99.90;;;;;;4993258;28;20561;-76
2022/06/17 04:03:53;;;;;;;4.78;3.58;;;13.20;99.90;;;;;;5002949;28;20038;-76
2022/06/17 04:06:34;;;;;;;5.15;3.63;;;13.30;99.90;;;;;;5004011;28;20065;-76
2022/06/17 04:09:03;;;;;;;4.32;3.25;;;13.50;99.90;;;;;;5004077;28;20038;-76
2022/06/17 04:11:38;;;;;;;4.70;3.25;;;13.70;99.90;;;;;;5004009;28;20037;-76
2022/06/17 04:14:14;;;;;;;4.63;3.40;;;14.30;99.90;;;;;;5009852;28;20060;-76
2022/06/17 04:16:47;;;;;;;4.68;3.55;;;15.40;99.90;;;;;;5008387;28;20441;-77
2022/06/17 04:19:13;;;;;;;6.43;3.20;;;16.40;99.90;;;;;;4998381;28;20506;-76
2022/06/17 04:21:39;;;;;;;4.30;3.20;;;17.50;99.90;;;;;;4998539;28;20034;-75
2022/06/17 04:24:06;;;;;;;3.90;2.90;;;18.20;99.90;;;;;;4996494;28;20035;-76
2022/06/17 04:26:34;;;;;;;4.38;3.08;;;18.50;99.90;;;;;;4993946;28;20026;-76
2022/06/17 04:29:11;;;;;;;7.40;2.80;;;18.30;99.90;;;;;;4994930;28;20041;-76
2022/06/17 04:31:37;;;;;;;4.45;3.33;;;17.80;99.90;;;;;;5002081;28;20037;-75
2022/06/17 04:34:10;;;;;;;4.40;3.10;;;17.30;99.90;;;;;;5013320;28;20045;-76
2022/06/17 04:37:00;;;;;;;4.15;3.22;;;16.80;99.90;;;;;;5031143;28;20033;-76
2022/06/17 04:39:50;;;;;;;3.92;3.20;;;16.40;99.90;;;;;;5023210;28;20041;-75
2022/06/17 04:42:20;;;;;;;4.47;3.13;;;16.10;99.90;;;;;;5025991;28;20114;-75
2022/06/17 04:44:46;;;;;;;4.28;3.45;;;15.80;99.90;;;;;;5026910;28;20032;-75
2022/06/17 04:47:20;;;;;;;4.07;3.50;;;15.60;99.90;;;;;;5023205;28;20030;-76
2022/06/17 04:49:52;;;;;;;4.25;3.42;;;15.50;99.90;;;;;;5016554;28;20226;-75
2022/06/17 04:52:23;;;;;;;5.33;3.60;;;15.50;99.90;;;;;;5028332;28;20037;-75
2022/06/17 04:54:49;;;;;;;5.00;3.50;;;15.40;99.90;;;;;;5018236;28;20569;-75
2022/06/17 04:57:15;;;;;;;4.28;3.70;;;15.40;99.90;;;;;;5012385;28;20502;-76
2022/06/17 04:59:44;;;;;;;4.70;3.83;;;15.40;99.90;;;;;;5020676;28;20081;-75
2022/06/17 05:02:31;;;;;;;5.15;3.60;;;15.50;99.90;;;;;;5009312;28;20072;-75
2022/06/17 05:05:00;;;;;;;4.72;3.60;;;15.70;99.90;;;;;;5015194;28;20026;-75
2022/06/17 05:07:32;;;;;;;4.53;3.47;;;15.90;99.90;;;;;;5028616;28;20030;-75
2022/06/17 05:10:05;;;;;;;6.40;3.90;;;16.00;99.90;;;;;;5014207;28;20044;-75
2022/06/17 05:12:38;;;;;;;4.82;3.10;;;16.20;99.90;;;;;;5018790;28;20120;-75
2022/06/17 05:15:11;;;;;;;6.03;3.05;;;16.20;99.90;;;;;;5028509;28;20141;-75
2022/06/17 05:17:38;;;;;;;5.60;3.35;;;16.10;99.90;;;;;;5024860;28;20516;-75
2022/06/17 05:20:05;;;;;;;4.30;3.10;;;16.00;99.90;;;;;;5006677;28;20030;-76
2022/06/17 05:22:33;;;;;;;4.32;3.53;;;15.80;99.90;;;;;;5010029;28;20029;-76
2022/06/17 05:25:02;;;;;;;4.28;3.47;;;15.80;99.90;;;;;;5008715;28;20057;-75
2022/06/17 05:27:28;;;;;;;5.95;3.70;;;15.80;99.90;;;;;;5008633;28;20144;-76
2022/06/17 05:29:53;;;;;;;6.13;3.85;;;15.70;99.90;;;;;;5006885;28;20060;-75
2022/06/17 05:32:20;;;;;;;5.53;3.30;;;15.80;99.90;;;;;;5023789;28;20033;-76
2022/06/17 05:34:47;;;;;;;5.70;3.40;;;15.90;99.90;;;;;;5023328;28;20047;-76
2022/06/17 05:37:14;;;;;;;6.32;3.75;;;16.10;99.90;;;;;;5002093;28;20037;-76
2022/06/17 05:39:40;;;;;;;6.43;3.70;;;16.20;99.90;;;;;;5005823;28;20029;-76
2022/06/17 05:42:06;;;;;;;3.92;3.13;;;16.30;99.90;;;;;;5005727;28;20482;-76
2022/06/17 05:44:32;;;;;;;5.93;3.42;;;16.30;99.90;;;;;;5007699;28;20116;-76
2022/06/17 05:46:58;;;;;;;6.45;3.25;;;16.40;99.90;;;;;;4993701;28;20456;-76
2022/06/17 05:49:24;;;;;;;7.13;3.10;;;16.50;99.90;;;;;;4986446;28;20058;-76
2022/06/17 05:51:49;;;;;;;6.53;3.53;;;16.70;99.90;;;;;;4994800;28;20065;-75
2022/06/17 05:54:15;;;;;;;4.25;3.03;;;16.80;99.90;;;;;;4988169;28;20113;-76
2022/06/17 05:56:41;;;;;;;6.53;2.97;;;16.90;99.90;;;;;;4988556;28;20056;-76
2022/06/17 05:59:07;;;;;;;6.63;3.38;;;17.00;99.90;;;;;;4986298;28;20494;-76
2022/06/17 06:01:32;;;;;;;5.68;2.88;;;17.20;99.90;;;;;;4988915;28;20038;-75
2022/06/17 06:03:58;;;;;;;3.40;3.10;;;17.30;99.90;;;;;;4988259;28;20034;-76
2022/06/17 06:06:24;;;;;;;4.35;3.00;;;17.40;99.90;;;;;;4987690;28;20105;-76
2022/06/17 06:08:49;;;;;;;7.63;3.50;;;17.60;99.90;;;;;;4990718;28;20357;-76
2022/06/17 06:11:15;;;;;;;6.57;3.20;;;17.80;99.90;;;;;;4988602;28;20034;-76
2022/06/17 06:13:41;;;;;;;4.35;3.10;;;17.80;99.90;;;;;;4988242;28;20414;-76
2022/06/17 06:16:08;;;;;;;3.45;3.00;;;17.80;99.90;;;;;;4998794;28;20466;-76
2022/06/17 06:18:36;;;;;;;6.40;3.22;;;17.80;99.90;;;;;;5005396;28;20096;-76
2022/06/17 06:21:04;;;;;;;3.67;3.20;;;17.90;99.90;;;;;;4995864;28;20026;-76
2022/06/17 06:23:32;;;;;;;4.85;2.95;;;17.90;99.90;;;;;;5006658;28;20025;-76
2022/06/17 06:25:58;;;;;;;5.15;3.00;;;18.00;99.90;;;;;;4987973;28;20055;-76
2022/06/17 06:28:25;;;;;;;4.72;3.20;;;18.10;99.90;;;;;;4985743;28;20030;-75
2022/06/17 06:31:25;;;;;;;4.45;3.67;;;18.20;99.90;;;;;;5001893;28;20069;-76
2022/06/17 06:33:51;;;;;;;4.10;3.00;;;18.50;99.90;;;;;;4984265;28;20577;-76
2022/06/17 06:36:17;;;;;;;2.78;2.58;;;18.80;99.90;;;;;;5017424;28;20021;-76
2022/06/17 06:38:42;;;;;;;5.18;2.80;;;19.00;99.90;;;;;;5005041;28;20410;-75
2022/06/17 06:41:08;;;;;;;3.28;2.88;;;19.10;99.90;;;;;;5007896;28;20026;-76
2022/06/17 06:43:34;;;;;;;3.13;2.88;;;19.30;99.90;;;;;;5014519;28;20057;-75
2022/06/17 06:46:06;;;;;;;3.78;3.03;;;19.40;99.90;;;;;;5007677;28;20196;-75
2022/06/17 06:48:31;;;;;;;3.72;2.83;;;19.70;99.90;;;;;;5008288;28;20029;-75
2022/06/17 06:50:57;;;;;;;3.90;3.15;;;19.70;99.90;;;;;;5014847;28;20026;-76
2022/06/17 06:53:23;;;;;;;4.50;2.90;;;19.80;99.90;;;;;;5012536;28;20057;-76
2022/06/17 06:55:49;;;;;;;4.88;2.75;;;19.90;99.90;;;;;;5024468;28;20013;-75
2022/06/17 06:58:18;;;;;;;3.47;2.58;;;20.20;99.90;;;;;;5012722;28;20060;-75
2022/06/17 07:00:46;;;;;;;5.38;2.80;;;20.30;99.90;;;;;;5006958;28;20026;-75
2022/06/17 07:03:14;;;;;;;5.22;2.58;;;20.50;99.90;;;;;;5009417;28;20029;-76
2022/06/17 07:05:43;;;;;;;4.25;2.63;;;20.80;99.90;;;;;;5026565;28;20018;-76
2022/06/17 07:08:11;;;;;;;5.75;2.70;;;21.00;99.90;;;;;;5025486;28;20401;-75
2022/06/17 07:10:37;;;;;;;4.50;2.25;;;21.10;99.50;;;;;;5010306;28;20431;-75
2022/06/17 07:13:05;;;;;;;4.05;2.25;;;21.10;99.90;;;;;;5006986;28;20622;-75
2022/06/17 07:15:32;;;;;;;3.08;2.17;;;21.20;99.70;;;;;;5006995;28;20037;-75
2022/06/17 07:18:07;;;;;;;6.13;2.80;;;21.30;98.50;;;;;;5020974;28;20033;-75
2022/06/17 07:20:37;;;;;;;6.70;2.70;;;21.20;97.10;;;;;;5012796;28;20047;-75
2022/06/17 07:23:08;;;;;;;3.60;2.33;;;21.30;96.90;;;;;;5026728;28;20243;-76
2022/06/17 07:25:34;;;;;;;4.53;2.40;;;21.40;95.70;;;;;;5026121;28;20084;-75
2022/06/17 07:28:00;;;;;;;3.65;2.10;;;21.50;94.00;;;;;;5019292;28;20117;-75
2022/06/17 07:30:27;;;;;;;3.50;2.70;;;21.50;94.70;;;;;;5016055;28;20029;-75
2022/06/17 07:32:53;;;;;;;5.28;2.28;;;21.60;94.50;;;;;;5018522;28;20535;-76
2022/06/17 07:35:19;;;;;;;3.50;2.20;;;21.70;94.30;;;;;;5011504;28;20050;-76
2022/06/17 07:40:30;;;;;;;4.53;2.45;;;22.00;92.90;;;;;;5009179;28;20029;-76
2022/06/17 07:42:57;;;;;;;6.68;2.65;;;22.20;92.10;;;;;;5017664;28;20034;-76
2022/06/17 07:45:24;;;;;;;7.28;2.42;;;22.20;90.80;;;;;;5010813;28;20033;-76
2022/06/17 07:47:51;;;;;;;3.28;2.10;;;22.30;89.90;;;;;;5009956;28;20495;-76
2022/06/17 07:50:23;;;;;;;3.53;1.90;;;22.40;89.20;;;;;;5025354;28;20478;-76
2022/06/17 07:52:49;;;;;;;4.07;2.30;;;22.50;88.70;;;;;;5010622;28;20115;-76
2022/06/17 07:55:15;;;;;;;5.30;1.92;;;22.70;86.60;;;;;;5023468;28;20037;-76
2022/06/17 07:57:45;;;;;;;5.93;2.15;;;22.80;83.90;;;;;;5029688;28;20028;-76
2022/06/17 08:00:23;;;;;;;7.63;2.17;;;23.00;82.00;;;;;;5027757;28;20432;-76
2022/06/17 08:02:49;;;;;;;5.45;1.88;;;23.00;79.40;;;;;;5016415;28;20058;-76
2022/06/17 08:05:15;;;;;;;3.63;2.10;;;23.10;81.00;;;;;;5010838;28;20079;-76
2022/06/17 08:07:41;;;;;;;3.92;2.00;;;23.20;80.60;;;;;;5011091;28;20025;-76
2022/06/17 08:10:07;;;;;;;2.78;1.92;;;23.40;80.30;;;;;;5012854;28;20040;-77
2022/06/17 08:12:32;;;;;;;5.80;2.00;;;23.50;80.20;;;;;;5014476;28;20053;-76
2022/06/17 08:14:58;;;;;;;4.90;2.17;;;23.60;79.90;;;;;;5010246;28;20109;-77
2022/06/17 08:17:24;;;;;;;4.85;1.80;;;23.70;78.70;;;;;;5019115;28;20025;-76
2022/06/17 08:19:52;;;;;;;5.15;2.00;;;23.80;77.80;;;;;;5015704;28;20026;-77
2022/06/17 08:22:19;;;;;;;4.05;2.03;;;24.10;77.50;;;;;;5029265;28;20121;-77
2022/06/17 08:24:44;;;;;;;6.22;1.80;;;24.10;77.40;;;;;;5015033;28;20034;-76
2022/06/17 08:27:10;;;;;;;3.35;1.80;;;24.20;75.20;;;;;;5009419;28;20580;-76
2022/06/17 08:29:35;;;;;;;5.70;1.80;;;24.10;75.10;;;;;;5008256;28;20063;-76
2022/06/17 08:34:45;;;;;;;4.00;1.90;;;23.90;74.90;;;;;;5010116;28;20057;-76
2022/06/17 08:37:13;;;;;;;8.35;1.83;;;23.70;75.00;;;;;;5025631;28;20030;-76
2022/06/17 08:39:39;;;;;;;5.20;1.90;;;23.40;75.10;;;;;;5022724;28;20022;-76
2022/06/17 08:42:13;;;;;;;3.78;1.50;;;23.50;72.60;;;;;;5010840;28;20029;-76
2022/06/17 08:45:00;;;;;;;3.22;1.58;;;23.60;73.80;;;;;;5009748;28;20021;-76
2022/06/17 08:47:35;;;;;;;4.50;1.77;;;23.60;71.80;;;;;;5022871;28;20504;-76
2022/06/17 08:50:31;;;;;;;3.35;1.40;;;23.80;72.70;;;;;;5021377;28;20116;-76
2022/06/17 08:53:06;;;;;;;4.10;1.40;;;24.20;71.30;;;;;;5015227;28;20031;-77
2022/06/17 08:55:58;;;;;;;2.95;1.60;;;24.50;69.40;;;;;;5028175;28;20470;-76
2022/06/17 08:58:36;;;;;;;3.00;1.52;;;24.90;67.50;;;;;;5002573;28;20107;-76
2022/06/17 09:01:23;;;;;;;4.35;1.48;;;25.00;67.40;;;;;;5026072;28;20036;-77
2022/06/17 09:03:58;;;;;;;4.78;1.50;;;25.20;66.50;;;;;;5027675;28;20036;-80
2022/06/17 09:06:51;;;;;;;2.22;1.33;;;25.40;67.20;;;;;;5028490;28;20033;-80
2022/06/17 09:09:20;;;;;;;;;;;25.70;65.80;;;;;;5007795;28;20589;-80
2022/06/17 09:11:56;;;;;;;4.20;1.30;;;25.80;64.30;;;;;;5008537;28;19933;-80
2022/06/17 09:14:33;;;;;;;3.10;1.30;;;25.90;64.70;;;;;;5008542;28;20053;-80
2022/06/17 09:17:24;;;;;;;5.63;1.27;;;25.80;63.40;;;;;;5022289;28;20044;-80
2022/06/17 09:19:56;;;;;;;3.33;1.38;;;25.70;64.10;;;;;;5016230;28;20034;-80
2022/06/17 09:22:28;;;;;;;1.38;1.10;;;25.80;62.90;;;;;;5027209;28;20037;-80
2022/06/17 09:24:58;;;;;;;2.63;1.38;;;26.00;62.00;;;;;;5010388;28;20433;-80
2022/06/17 09:27:28;;;;;;;1.90;0.90;;;26.20;61.40;;;;;;5009359;28;20643;-80
2022/06/17 09:30:23;;;;;;;6.05;1.00;;;26.20;61.90;;;;;;5012783;28;20030;-80
2022/06/17 09:33:02;;;;;;;4.53;1.30;;;26.00;61.60;;;;;;5013253;28;20048;-80
2022/06/17 09:35:36;;;;;;;8.45;1.50;;;26.00;60.70;;;;;;5007842;28;20053;-80
2022/06/17 09:38:13;;;;;;;2.95;1.00;;;26.00;59.60;;;;;;5008826;28;20029;-80
2022/06/17 09:41:09;;;;;;;2.42;0.90;;;26.10;59.30;;;;;;5009084;28;20093;-80
2022/06/17 09:44:12;;;;;;;3.95;0.93;;;26.20;59.70;;;;;;5009575;28;20437;-80
2022/06/17 09:46:44;;;;;;;1.63;0.80;;;26.30;58.00;;;;;;5023112;28;20030;-80
2022/06/17 09:49:15;;;;;;;1.75;0.70;;;26.30;55.20;;;;;;5018503;28;20033;-80
2022/06/17 09:51:49;;;;;;;1.55;0.80;;;26.30;54.80;;;;;;5015048;28;20492;-80
2022/06/17 09:54:30;;;;;;;2.72;1.00;;;26.10;55.20;;;;;;5014274;28;20041;-80
2022/06/17 09:57:05;;;;;;;2.35;0.90;;;25.90;56.90;;;;;;5024715;28;20021;-80
2022/06/17 09:59:41;;;;;;;6.32;0.82;;;25.90;55.80;;;;;;5026497;28;20182;-80
2022/06/17 10:02:21;;;;;;;1.75;0.70;;;26.10;56.40;;;;;;5012149;28;20125;-80
2022/06/17 10:04:47;;;;;;;4.95;1.00;;;26.30;55.80;;;;;;5011525;28;20029;-80
2022/06/17 10:07:20;;;;;;;3.70;1.10;;;26.50;55.10;;;;;;5014574;28;20026;-80
2022/06/17 10:10:37;;;;;;;1.40;0.88;;;26.50;53.20;;;;;;5006413;28;20026;-80
2022/06/17 10:13:20;;;;;;;1.65;0.88;;;26.40;54.80;;;;;;4960110;28;20280;-80
2022/06/17 10:18:45;;;;;;;2.75;1.00;;;25.80;54.10;;;;;;5007482;28;20429;-80
2022/06/17 10:21:33;;;;;;;1.58;0.80;;;25.60;53.60;;;;;;5027187;28;20025;-80
2022/06/17 10:24:23;;;;;;;1.88;0.73;;;25.60;53.30;;;;;;5021147;28;20040;-80
2022/06/17 10:27:13;;;;;;;2.20;0.73;;;25.70;54.20;;;;;;5008661;28;20032;-80
2022/06/17 10:30:01;;;;;;;3.47;1.00;;;26.00;55.30;;;;;;5005300;28;20076;-80
2022/06/17 10:32:29;;;;;;;4.45;1.00;;;26.10;53.70;;;;;;5007862;28;20069;-80
2022/06/17 10:35:01;;;;;;;3.28;0.90;;;26.10;53.90;;;;;;5007967;28;20217;-80
2022/06/17 10:37:28;;;;;;;2.08;0.77;;;26.20;53.00;;;;;;5007474;28;20028;-80
2022/06/17 10:39:55;;;;;;;3.47;0.98;;;26.30;52.90;;;;;;5012890;28;20052;-80
2022/06/17 10:42:23;;;;;;;3.38;1.00;;;26.20;53.20;;;;;;5024035;28;20116;-79
2022/06/17 10:44:52;;;;;;;5.18;1.08;;;26.10;53.30;;;;;;5017749;28;20117;-79
2022/06/17 10:48:00;;;;;;;3.53;0.90;;;26.30;52.40;;;;;;5006974;28;20514;-79
2022/06/17 10:50:29;;;;;;;1.30;0.70;;;26.20;52.10;;;;;;5012847;28;20563;-80
2022/06/17 10:53:01;;;;;;;2.33;0.80;;;26.40;51.40;;;;;;5013137;28;20025;-80
2022/06/17 10:55:53;;;;;;;0.95;0.60;;;26.50;51.30;;;;;;5007149;28;20391;-80
2022/06/17 10:58:24;;;;;;;3.63;0.77;;;26.70;50.00;;;;;;5006531;28;20033;-80
2022/06/17 11:01:01;;;;;;;1.33;0.70;;;27.00;46.60;;;;;;5007316;28;20025;-80
2022/06/17 11:03:28;;;;;;;1.10;0.70;;;27.10;48.30;;;;;;5012466;28;20030;-80
2022/06/17 11:06:00;;;;;;;2.00;0.90;;;27.20;49.50;;;;;;5023444;28;20041;-80
2022/06/17 11:08:34;;;;;;;1.48;0.82;;;27.00;47.90;;;;;;5004943;28;20151;-80
2022/06/17 11:12:02;;;;;;;2.95;1.00;;;26.80;49.10;;;;;;5006951;28;20481;-80
2022/06/17 11:13:50;;;;;;;2.42;1.05;;;26.90;53.10;;;;;;5006837;28;20041;-80
2022/06/17 11:16:18;;;;;;;2.55;1.10;;;26.90;52.30;;;;;;5013237;28;20034;-80
2022/06/17 11:19:00;;;;;;;1.98;1.00;;;27.10;51.70;;;;;;5009270;28;20038;-80
2022/06/17 11:21:42;;;;;;;1.48;1.00;;;27.20;50.10;;;;;;5026460;28;20040;-80
2022/06/17 11:24:17;;;;;;;3.58;0.95;;;27.30;49.30;;;;;;5018508;28;20022;-80
2022/06/17 11:27:04;;;;;;;1.95;0.85;;;27.40;50.30;;;;;;5014557;28;20026;-80
2022/06/17 11:29:43;;;;;;;0.98;0.77;;;27.40;49.60;;;;;;5004576;28;20046;-80
2022/06/17 11:32:20;;;;;;;1.20;0.60;;;27.60;50.90;;;;;;5023543;28;20037;-80
2022/06/17 11:35:01;;;;;;;1.50;0.73;;;27.70;47.50;;;;;;5021353;28;20053;-80
2022/06/17 11:37:33;;;;;;;1.73;0.80;;;27.70;47.40;;;;;;5006284;28;20433;-80
2022/06/17 11:40:18;;;;;;;1.15;0.65;;;27.70;45.30;;;;;;5004600;28;20100;-80
2022/06/17 11:42:51;;;;;;;1.35;0.65;;;27.90;46.10;;;;;;5018170;28;20060;-80
2022/06/17 11:45:32;;;;;;;1.23;0.60;;;27.80;45.10;;;;;;5006953;28;20030;-79
2022/06/17 11:48:19;;;;;;;2.05;0.60;;;27.80;47.10;;;;;;5006862;28;20755;-80
2022/06/17 11:51:10;;;;;;;2.28;0.50;;;27.80;46.40;;;;;;5005878;28;20234;-80
2022/06/17 11:53:50;;;;;;;1.98;0.50;;;28.00;44.30;;;;;;5019850;28;20056;-80
2022/06/17 11:56:33;;;;;;;1.48;0.40;;;28.00;41.70;;;;;;5019019;28;20405;-79
2022/06/17 11:59:06;;;;;;;1.53;0.70;;;28.10;42.00;;;;;;5004654;28;20026;-79
2022/06/17 12:01:31;;;;;;;2.17;0.57;;;28.30;42.00;;;;;;5014895;28;20053;-79
2022/06/17 12:03:57;;;;;;;1.02;0.60;;;28.40;41.60;;;;;;5026481;28;20053;-80
2022/06/17 12:06:29;;;;;;;0.93;0.50;;;28.40;39.80;;;;;;5024468;28;20122;-80
2022/06/17 12:09:03;;;;;;;2.40;0.50;;;28.50;41.10;;;;;;5022014;28;20025;-80
2022/06/17 12:11:47;;;;;;;0.68;0.50;;;28.70;41.30;;;;;;5005973;28;20109;-80
2022/06/17 12:14:34;;;;;;;2.10;0.50;;;28.80;41.70;;;;;;5006084;28;20030;-80
2022/06/17 12:17:00;;;;;;;2.20;0.40;;;28.80;40.70;;;;;;5010395;28;20025;-80
2022/06/17 12:19:26;;;;;;;1.08;0.50;;;29.00;40.70;;;;;;5018818;28;20030;-80
2022/06/17 12:21:58;;;;;;;1.13;0.40;;;28.90;50.30;;;;;;5028851;28;20025;-80
2022/06/17 12:24:40;;;;;;;1.00;0.50;;;28.80;49.50;;;;;;5012469;28;20029;-80
2022/06/17 12:27:40;;;;;;;1.83;0.50;;;28.90;50.60;;;;;;5010895;28;20033;-80
2022/06/17 12:30:32;;;;;;;1.85;0.40;;;29.10;50.20;;;;;;4996435;28;20129;-80
2022/06/17 12:33:05;;;;;;;0.40;0.40;;;29.10;49.30;;;;;;5009982;28;20022;-79
2022/06/17 12:35:45;;;;;;;1.88;0.50;;;29.30;49.60;;;;;;5010245;28;20033;-80
2022/06/17 12:38:31;;;;;;;1.20;0.50;;;29.30;49.00;;;;;;5007747;28;20029;-80
2022/06/17 12:41:31;;;;;;;2.92;0.60;;;29.10;48.80;;;;;;5023505;28;20377;-81
2022/06/17 12:44:20;;;;;;;3.08;0.50;;;28.90;50.40;;;;;;5011488;28;20406;-80
2022/06/17 12:47:02;;;;;;;2.67;0.50;;;28.80;51.00;;;;;;5010533;28;20079;-80
2022/06/17 12:55:26;;;;;;;0.60;0.55;;;28.40;42.50;;;;;;5010752;28;20409;-80
2022/06/17 12:58:02;;;;;;;2.33;0.70;;;28.30;44.10;;;;;;5022499;28;20112;-80
2022/06/17 13:00:31;;;;;;;1.02;0.65;;;28.20;46.10;;;;;;5026449;28;20472;-80
2022/06/17 13:03:06;;;;;;;3.25;0.70;;;28.30;45.90;;;;;;5009738;28;20045;-80
2022/06/17 13:05:41;;;;;;;1.48;0.60;;;28.20;45.00;;;;;;5010019;28;20471;-80
2022/06/17 13:08:19;;;;;;;1.63;0.60;;;28.20;45.70;;;;;;5026653;28;20643;-80
2022/06/17 13:11:07;;;;;;;3.20;0.80;;;28.10;46.10;;;;;;5026396;28;20062;-80
2022/06/17 13:13:58;;;;;;;1.98;0.82;;;28.00;46.40;;;;;;5011042;28;20030;-80
2022/06/17 13:16:38;;;;;;;1.65;0.80;;;28.10;46.00;;;;;;5028470;28;20033;-80
2022/06/17 13:19:37;;;;;;;1.10;0.52;;;28.10;46.40;;;;;;5024162;28;20106;-80
2022/06/17 13:22:17;;;;;;;2.60;0.70;;;28.10;46.70;;;;;;5021847;28;20033;-80
2022/06/17 13:24:49;;;;;;;3.80;1.00;;;28.00;46.90;;;;;;5024576;28;20018;-80
2022/06/17 13:27:28;;;;;;;3.08;0.75;;;28.00;46.80;;;;;;5008828;28;20497;-80
2022/06/17 13:30:17;;;;;;;1.65;0.90;;;27.80;47.60;;;;;;5007048;28;20493;-80
2022/06/17 13:32:53;;;;;;;2.13;0.70;;;27.80;47.10;;;;;;5007717;28;20464;-81
2022/06/17 13:35:24;;;;;;;1.83;0.70;;;27.70;47.70;;;;;;5008443;28;20053;-80
2022/06/17 13:37:56;;;;;;;1.35;0.70;;;27.70;48.40;;;;;;5015882;28;20028;-80